createdAt,value
2018-04-02T00:00:12.674Z,84.30
2018-04-02T00:02:41.423Z,84.30
2018-04-02T00:05:09.092Z,84.90
2018-04-02T00:07:36.689Z,85.50
2018-04-02T00:10:04.320Z,85.60
2018-04-02T00:12:31.977Z,86.00
2018-04-02T00:14:59.603Z,86.20
2018-04-02T00:17:27.272Z,86.10
2018-04-02T00:19:55.714Z,86.30
2018-04-02T00:22:23.458Z,86.20
2018-04-02T00:24:51.067Z,86.30
2018-04-02T00:27:18.674Z,87.10
2018-04-02T00:29:46.341Z,86.10
2018-04-02T00:32:13.990Z,86.20
2018-04-02T00:34:41.647Z,86.20
2018-04-02T00:37:09.281Z,86.40
2018-04-02T00:39:36.972Z,86.00
2018-04-02T00:42:04.631Z,86.00
2018-04-02T00:44:32.279Z,85.80
2018-04-02T00:46:59.969Z,85.70
2018-04-02T00:49:27.590Z,85.70
2018-04-02T00:51:55.264Z,85.70
2018-04-02T00:54:23.427Z,85.60
2018-04-02T00:56:51.122Z,85.80
2018-04-02T00:59:18.817Z,87.00
2018-04-02T01:01:46.477Z,85.80
2018-04-02T01:04:14.144Z,85.70
2018-04-02T01:06:41.784Z,86.00
2018-04-02T01:09:10.050Z,86.00
2018-04-02T01:11:37.692Z,86.00
2018-04-02T01:14:05.354Z,86.00
2018-04-02T01:16:32.990Z,85.70
2018-04-02T01:19:00.640Z,85.50
2018-04-02T01:21:28.319Z,85.50
2018-04-02T01:23:56.894Z,84.50
2018-04-02T01:26:25.308Z,84.40
2018-04-02T01:28:52.930Z,84.40
2018-04-02T01:31:20.651Z,84.40
2018-04-02T01:33:48.382Z,84.10
2018-04-02T01:36:16.147Z,83.90
2018-04-02T01:38:43.786Z,83.50
2018-04-02T01:41:12.230Z,83.00
2018-04-02T01:43:39.957Z,82.90
2018-04-02T01:46:07.597Z,82.80
2018-04-02T01:48:36.085Z,83.00
2018-04-02T01:51:03.765Z,82.80
2018-04-02T01:53:31.577Z,82.70
2018-04-02T01:55:59.197Z,82.60
2018-04-02T01:58:26.830Z,82.70
2018-04-02T02:00:55.313Z,82.60
2018-04-02T02:03:25.293Z,82.70
2018-04-02T02:05:53.983Z,82.70
2018-04-02T02:08:23.840Z,84.00
2018-04-02T02:10:51.579Z,83.10
2018-04-02T02:13:20.048Z,83.20
2018-04-02T02:15:47.727Z,83.20
2018-04-02T02:18:15.426Z,83.20
2018-04-02T02:20:43.686Z,83.40
2018-04-02T02:23:11.358Z,83.70
2018-04-02T02:25:39.147Z,83.90
2018-04-02T02:28:06.848Z,84.50
2018-04-02T02:30:34.523Z,84.60
2018-04-02T02:33:02.258Z,84.70
2018-04-02T02:35:29.941Z,84.90
2018-04-02T02:38:00.310Z,85.00
2018-04-02T02:40:27.958Z,85.40
2018-04-02T02:42:57.110Z,85.40
2018-04-02T02:45:25.535Z,85.80
2018-04-02T02:47:53.130Z,85.70
2018-04-02T02:50:22.547Z,85.80
2018-04-02T02:52:50.966Z,85.50
2018-04-02T02:55:18.675Z,85.50
2018-04-02T02:57:46.320Z,85.70
2018-04-02T03:00:14.733Z,86.20
2018-04-02T03:02:42.359Z,86.20
2018-04-02T03:05:10.019Z,86.40
2018-04-02T03:07:37.730Z,86.40
2018-04-02T03:10:06.782Z,86.30
2018-04-02T03:12:35.222Z,86.60
2018-04-02T03:15:03.407Z,86.50
2018-04-02T03:17:31.154Z,86.70
2018-04-02T03:19:58.897Z,86.80
2018-04-02T03:22:27.767Z,86.70
2018-04-02T03:24:56.295Z,86.60
2018-04-02T03:27:23.970Z,86.60
2018-04-02T03:29:52.970Z,86.40
2018-04-02T03:32:20.610Z,86.70
2018-04-02T03:34:48.223Z,86.40
2018-04-02T03:37:15.886Z,86.60
2018-04-02T03:39:43.606Z,86.60
2018-04-02T03:42:14.674Z,86.60
2018-04-02T03:44:43.077Z,86.40
2018-04-02T03:47:10.741Z,86.80
2018-04-02T03:49:38.378Z,86.90
2018-04-02T03:52:06.054Z,86.90
2018-04-02T03:54:33.698Z,86.90
2018-04-02T03:57:01.360Z,87.70
2018-04-02T03:59:29.077Z,86.90
2018-04-02T04:01:57.485Z,87.10
2018-04-02T04:04:25.165Z,87.00
2018-04-02T04:06:52.811Z,87.00
2018-04-02T04:09:21.263Z,87.00
2018-04-02T04:11:48.920Z,87.00
2018-04-02T04:14:16.561Z,87.00
2018-04-02T04:16:44.315Z,86.90
2018-04-02T04:19:12.758Z,86.90
2018-04-02T04:21:40.426Z,86.90
2018-04-02T04:24:08.082Z,86.90
2018-04-02T04:26:40.108Z,87.00
2018-04-02T04:29:08.709Z,86.80
2018-04-02T04:31:36.334Z,86.70
2018-04-02T04:34:03.997Z,86.70
2018-04-02T04:36:31.857Z,86.50
2018-04-02T04:38:59.542Z,86.60
2018-04-02T04:41:27.778Z,86.30
2018-04-02T04:43:55.431Z,86.00
2018-04-02T04:46:23.100Z,86.20
2018-04-02T04:48:50.755Z,86.60
2018-04-02T04:51:18.410Z,86.50
2018-04-02T04:53:47.047Z,86.30
2018-04-02T04:56:14.716Z,86.10
2018-04-02T04:58:42.358Z,86.00
2018-04-02T05:01:10.174Z,86.50
2018-04-02T05:03:37.814Z,86.80
2018-04-02T05:06:05.453Z,86.60
2018-04-02T05:08:35.028Z,86.20
2018-04-02T05:11:03.070Z,85.80
2018-04-02T05:13:30.866Z,85.70
2018-04-02T05:16:00.074Z,86.40
2018-04-02T05:18:28.559Z,86.00
2018-04-02T05:20:59.745Z,85.90
2018-04-02T05:23:28.921Z,86.40
2018-04-02T05:25:56.592Z,86.40
2018-04-02T05:28:25.444Z,86.20
2018-04-02T05:30:53.092Z,85.80
2018-04-02T05:33:21.519Z,87.30
2018-04-02T05:35:49.168Z,87.30
2018-04-02T05:38:16.918Z,86.20
2018-04-02T05:40:44.648Z,85.20
2018-04-02T05:43:13.119Z,84.40
2018-04-02T05:45:40.779Z,84.40
2018-04-02T05:48:08.785Z,83.00
2018-04-02T05:50:36.444Z,83.50
2018-04-02T05:53:04.107Z,82.20
2018-04-02T05:55:31.753Z,82.60
2018-04-02T05:58:00.659Z,79.30
2018-04-02T06:00:28.305Z,79.20
2018-04-02T06:02:56.894Z,76.70
2018-04-02T06:05:24.554Z,76.70
2018-04-02T06:07:52.310Z,78.00
2018-04-02T06:10:20.738Z,75.10
2018-04-02T06:12:49.775Z,75.10
2018-04-02T06:15:18.059Z,74.50
2018-04-02T06:17:46.490Z,73.50
2018-04-02T06:20:14.685Z,73.50
2018-04-02T06:22:42.387Z,70.10
2018-04-02T06:25:10.041Z,67.40
2018-04-02T06:27:39.851Z,64.00
2018-04-02T06:30:08.230Z,62.60
2018-04-02T06:32:36.757Z,62.60
2018-04-02T06:35:04.432Z,62.10
2018-04-02T06:37:32.071Z,65.10
2018-04-02T06:39:59.764Z,66.10
2018-04-02T06:42:27.397Z,64.90
2018-04-02T06:44:55.092Z,63.00
2018-04-02T06:47:24.190Z,60.70
2018-04-02T06:49:52.998Z,59.20
2018-04-02T06:52:21.421Z,55.90
2018-04-02T06:54:49.662Z,55.90
2018-04-02T06:57:18.083Z,54.70
2018-04-02T06:59:45.775Z,54.70
2018-04-02T07:02:13.930Z,53.00
2018-04-02T07:04:42.362Z,51.20
2018-04-02T07:07:10.011Z,51.20
2018-04-02T07:09:39.010Z,51.40
2018-04-02T07:12:06.639Z,51.80
2018-04-02T07:14:35.560Z,50.90
2018-04-02T07:17:04.166Z,49.60
2018-04-02T07:19:31.783Z,49.70
2018-04-02T07:22:00.195Z,48.70
2018-04-02T07:24:27.816Z,48.70
2018-04-02T07:26:55.500Z,49.80
2018-04-02T07:29:23.225Z,46.50
2018-04-02T07:31:50.903Z,46.60
2018-04-02T07:34:18.951Z,46.40
2018-04-02T07:36:46.685Z,46.50
2018-04-02T07:39:14.429Z,45.40
2018-04-02T07:41:42.087Z,43.10
2018-04-02T07:44:09.733Z,42.30
2018-04-02T07:46:38.268Z,42.90
2018-04-02T07:49:07.596Z,42.70
2018-04-02T07:51:35.239Z,42.30
2018-04-02T07:54:03.691Z,42.20
2018-04-02T07:56:31.353Z,42.50
2018-04-02T07:58:59.068Z,40.50
2018-04-02T08:01:27.599Z,40.70
2018-04-02T08:03:56.343Z,40.70
2018-04-02T08:06:24.827Z,40.90
2018-04-02T08:08:52.456Z,40.70
2018-04-02T08:11:21.413Z,39.40
2018-04-02T08:13:49.075Z,38.30
2018-04-02T08:16:16.843Z,41.50
2018-04-02T08:18:44.716Z,39.90
2018-04-02T08:21:12.341Z,38.70
2018-04-02T08:23:40.769Z,37.30
2018-04-02T08:26:08.614Z,37.30
2018-04-02T08:28:36.707Z,36.40
2018-04-02T08:31:07.431Z,34.80
2018-04-02T08:33:35.098Z,35.30
2018-04-02T08:36:03.060Z,34.20
2018-04-02T08:38:30.688Z,34.20
2018-04-02T08:41:01.049Z,35.10
2018-04-02T08:43:28.695Z,34.00
2018-04-02T08:45:56.356Z,34.50
2018-04-02T08:48:24.002Z,34.40
2018-04-02T08:50:51.680Z,35.20
2018-04-02T08:53:19.383Z,35.30
2018-04-02T08:55:47.012Z,37.20
2018-04-02T08:58:15.173Z,37.20
2018-04-02T09:00:42.808Z,35.10
2018-04-02T09:03:10.976Z,33.20
2018-04-02T09:05:39.749Z,33.60
2018-04-02T09:08:09.068Z,33.60
2018-04-02T09:10:37.536Z,34.00
2018-04-02T09:13:05.922Z,34.90
2018-04-02T09:15:34.503Z,36.50
2018-04-02T09:18:02.896Z,34.10
2018-04-02T09:20:31.294Z,32.80
2018-04-02T09:22:58.947Z,32.80
2018-04-02T09:25:26.628Z,34.50
2018-04-02T09:27:54.812Z,33.80
2018-04-02T09:30:22.445Z,33.40
2018-04-02T09:32:50.133Z,31.60
2018-04-02T09:35:17.760Z,30.00
2018-04-02T09:37:45.408Z,29.60
2018-04-02T09:40:13.796Z,30.40
2018-04-02T09:42:42.055Z,30.40
2018-04-02T09:45:10.502Z,32.80
2018-04-02T09:47:38.231Z,32.80
2018-04-02T09:50:06.498Z,32.30
2018-04-02T09:52:35.100Z,32.60
2018-04-02T09:55:05.323Z,32.90
2018-04-02T09:57:32.956Z,32.40
2018-04-02T10:00:01.418Z,32.00
2018-04-02T10:05:40.691Z,32.50
2018-04-02T10:08:09.121Z,34.80
2018-04-02T10:10:36.818Z,34.10
2018-04-02T10:13:05.301Z,33.00
2018-04-02T10:15:32.981Z,32.90
2018-04-02T10:18:01.252Z,32.40
2018-04-02T10:20:29.671Z,32.60
2018-04-02T10:22:58.664Z,32.50
2018-04-02T10:25:27.351Z,32.80
2018-04-02T10:27:55.034Z,31.70
2018-04-02T10:30:22.694Z,29.30
2018-04-02T10:32:50.405Z,29.70
2018-04-02T10:35:20.743Z,28.80
2018-04-02T10:37:49.060Z,28.80
2018-04-02T10:40:17.778Z,29.20
2018-04-02T10:42:46.409Z,28.80
2018-04-02T10:45:14.094Z,27.60
2018-04-02T10:47:41.727Z,25.80
2018-04-02T10:50:09.385Z,28.70
2018-04-02T10:52:39.908Z,29.00
2018-04-02T10:55:07.606Z,29.70
2018-04-02T10:57:36.046Z,30.60
2018-04-02T11:00:03.677Z,30.50
2018-04-02T11:02:31.436Z,31.10
2018-04-02T11:04:59.864Z,29.80
2018-04-02T11:07:27.562Z,29.70
2018-04-02T11:09:55.261Z,31.50
2018-04-02T11:12:24.471Z,29.00
2018-04-02T11:14:52.697Z,28.90
2018-04-02T11:17:24.586Z,30.00
2018-04-02T11:19:53.577Z,28.80
2018-04-02T11:22:25.652Z,28.70
2018-04-02T11:24:53.393Z,27.80
2018-04-02T11:27:21.044Z,28.70
2018-04-02T11:29:48.675Z,27.70
2018-04-02T11:32:17.161Z,29.50
2018-04-02T11:34:44.819Z,29.90
2018-04-02T11:37:13.871Z,28.40
2018-04-02T11:39:42.952Z,28.70
2018-04-02T11:42:12.778Z,27.80
2018-04-02T11:44:40.508Z,27.70
2018-04-02T11:47:08.132Z,26.60
2018-04-02T11:49:36.653Z,26.00
2018-04-02T11:52:05.065Z,28.60
2018-04-02T11:54:32.820Z,28.60
2018-04-02T11:57:00.557Z,29.30
2018-04-02T11:59:29.903Z,29.50
2018-04-02T12:01:58.369Z,27.40
2018-04-02T12:04:26.114Z,27.30
2018-04-02T12:06:53.750Z,26.90
2018-04-02T12:09:23.205Z,26.60
2018-04-02T12:11:51.615Z,25.60
2018-04-02T12:14:19.406Z,25.60
2018-04-02T12:16:47.198Z,26.10
2018-04-02T12:19:14.844Z,26.80
2018-04-02T12:21:43.904Z,25.50
2018-04-02T12:24:11.546Z,24.30
2018-04-02T12:26:39.572Z,22.90
2018-04-02T12:29:07.242Z,25.20
2018-04-02T12:31:36.865Z,25.50
2018-04-02T12:34:04.547Z,27.60
2018-04-02T12:36:32.220Z,27.80
2018-04-02T12:39:00.384Z,27.10
2018-04-02T12:41:28.848Z,26.40
2018-04-02T12:43:56.567Z,26.10
2018-04-02T12:46:26.500Z,26.00
2018-04-02T12:48:54.250Z,26.00
2018-04-02T12:51:22.734Z,25.70
2018-04-02T12:53:50.460Z,25.60
2018-04-02T12:56:18.181Z,25.30
2018-04-02T12:58:46.215Z,24.90
2018-04-02T13:01:15.691Z,23.80
2018-04-02T13:03:43.846Z,24.50
2018-04-02T13:06:12.307Z,24.20
2018-04-02T13:08:40.099Z,22.60
2018-04-02T13:11:09.478Z,24.70
2018-04-02T13:13:37.141Z,23.20
2018-04-02T13:16:04.870Z,24.20
2018-04-02T13:18:33.721Z,23.90
2018-04-02T13:21:01.498Z,23.60
2018-04-02T13:23:29.182Z,23.10
2018-04-02T13:25:57.574Z,22.40
2018-04-02T13:28:25.993Z,22.50
2018-04-02T13:30:55.144Z,22.40
2018-04-02T13:33:24.766Z,24.30
2018-04-02T13:35:54.140Z,26.10
2018-04-02T13:38:21.825Z,26.00
2018-04-02T13:40:49.816Z,27.20
2018-04-02T13:43:18.708Z,29.20
2018-04-02T13:45:46.398Z,31.00
2018-04-02T13:48:14.046Z,29.50
2018-04-02T13:50:43.797Z,30.20
2018-04-02T13:53:11.480Z,30.00
2018-04-02T13:55:39.341Z,29.90
2018-04-02T13:58:07.049Z,30.30
2018-04-02T14:00:50.043Z,29.80
2018-04-02T14:03:17.730Z,29.70
2018-04-02T14:05:45.457Z,28.90
2018-04-02T14:08:13.121Z,29.30
2018-04-02T14:10:40.767Z,30.10
2018-04-02T14:13:08.465Z,30.00
2018-04-02T14:15:36.868Z,29.20
2018-04-02T14:18:05.625Z,29.10
2018-04-02T14:20:33.367Z,28.10
2018-04-02T14:23:02.155Z,28.50
2018-04-02T14:25:29.827Z,28.40
2018-04-02T14:27:58.344Z,28.20
2018-04-02T14:30:26.214Z,29.60
2018-04-02T14:32:53.834Z,30.00
2018-04-02T14:35:21.496Z,30.00
2018-04-02T14:37:50.652Z,30.90
2018-04-02T14:40:20.098Z,28.20
2018-04-02T14:42:47.708Z,26.30
2018-04-02T14:45:15.358Z,24.50
2018-04-02T14:47:43.115Z,22.00
2018-04-02T14:50:10.801Z,21.20
2018-04-02T14:52:38.473Z,24.30
2018-04-02T14:55:06.127Z,26.50
2018-04-02T14:57:34.924Z,27.80
2018-04-02T15:00:03.329Z,29.00
2018-04-02T15:02:31.056Z,29.00
2018-04-02T15:04:58.954Z,30.00
2018-04-02T15:07:26.775Z,29.90
2018-04-02T15:09:55.301Z,29.20
2018-04-02T15:12:22.944Z,27.90
2018-04-02T15:14:51.224Z,28.70
2018-04-02T15:17:18.870Z,28.00
2018-04-02T15:19:48.339Z,28.50
2018-04-02T15:22:17.104Z,28.70
2018-04-02T15:24:44.890Z,28.90
2018-04-02T15:27:13.308Z,29.00
2018-04-02T15:29:40.954Z,29.20
2018-04-02T15:32:09.260Z,28.90
2018-04-02T15:34:37.006Z,28.20
2018-04-02T15:37:04.726Z,28.70
2018-04-02T15:39:32.417Z,29.00
2018-04-02T15:42:00.116Z,29.10
2018-04-02T15:44:29.977Z,29.70
2018-04-02T15:46:58.971Z,29.70
2018-04-02T15:49:26.592Z,29.50
2018-04-02T15:51:54.399Z,29.30
2018-04-02T15:54:22.053Z,29.10
2018-04-02T15:56:49.798Z,29.10
2018-04-02T15:59:17.541Z,29.20
2018-04-02T16:01:45.473Z,28.30
2018-04-02T16:04:13.155Z,28.70
2018-04-02T16:06:42.110Z,29.10
2018-04-02T16:09:11.337Z,29.20
2018-04-02T16:11:40.041Z,28.90
2018-04-02T16:14:08.836Z,29.20
2018-04-02T16:16:36.507Z,29.30
2018-04-02T16:19:04.141Z,29.50
2018-04-02T16:21:31.830Z,30.00
2018-04-02T16:23:59.478Z,30.40
2018-04-02T16:26:27.130Z,30.30
2018-04-02T16:28:54.829Z,30.70
2018-04-02T16:31:22.466Z,30.60
2018-04-02T16:33:50.226Z,30.90
2018-04-02T16:36:17.954Z,30.80
2018-04-02T16:38:45.595Z,31.30
2018-04-02T16:41:13.328Z,31.50
2018-04-02T16:43:41.740Z,31.80
2018-04-02T16:46:09.562Z,31.60
2018-04-02T16:48:37.330Z,32.10
2018-04-02T16:51:04.966Z,32.60
2018-04-02T16:53:32.644Z,33.00
2018-04-02T16:56:00.470Z,33.60
2018-04-02T16:58:28.201Z,34.00
2018-04-02T17:00:56.690Z,34.90
2018-04-02T17:03:26.523Z,35.30
2018-04-02T17:05:54.146Z,35.30
2018-04-02T17:08:21.850Z,35.60
2018-04-02T17:10:50.256Z,35.90
2018-04-02T17:13:17.943Z,36.40
2018-04-02T17:15:45.977Z,37.10
2018-04-02T17:18:13.706Z,37.00
2018-04-02T17:20:42.208Z,37.60
2018-04-02T17:23:09.980Z,37.50
2018-04-02T17:25:39.182Z,37.90
2018-04-02T17:28:06.867Z,38.20
2018-04-02T17:30:34.638Z,38.10
2018-04-02T17:33:02.290Z,38.30
2018-04-02T17:35:29.990Z,38.50
2018-04-02T17:37:58.446Z,39.00
2018-04-02T17:40:26.220Z,39.00
2018-04-02T17:42:53.938Z,39.20
2018-04-02T17:45:23.323Z,39.70
2018-04-02T17:47:51.026Z,40.30
2018-04-02T17:50:18.972Z,40.30
2018-04-02T17:52:46.865Z,40.40
2018-04-02T17:55:14.548Z,40.80
2018-04-02T17:57:43.025Z,41.90
2018-04-02T18:00:11.022Z,41.90
2018-04-02T18:02:39.543Z,42.60
2018-04-02T18:05:07.231Z,42.60
2018-04-02T18:07:34.958Z,42.60
2018-04-02T18:10:03.389Z,42.80
2018-04-02T18:12:31.044Z,42.70
2018-04-02T18:14:58.766Z,42.80
2018-04-02T18:17:26.551Z,42.80
2018-04-02T18:19:54.254Z,42.80
2018-04-02T18:22:22.016Z,42.70
2018-04-02T18:24:50.514Z,42.90
2018-04-02T18:27:18.234Z,42.80
2018-04-02T18:29:45.921Z,43.30
2018-04-02T18:32:15.626Z,44.20
2018-04-02T18:34:43.333Z,44.20
2018-04-02T18:37:12.626Z,44.00
2018-04-02T18:39:41.732Z,43.90
2018-04-02T18:42:10.233Z,43.60
2018-04-02T18:44:38.962Z,43.80
2018-04-02T18:47:06.706Z,43.70
2018-04-02T18:49:34.412Z,44.10
2018-04-02T18:52:02.109Z,44.50
2018-04-02T18:54:29.995Z,44.70
2018-04-02T18:56:57.727Z,45.10
2018-04-02T18:59:25.596Z,44.70
2018-04-02T19:01:53.727Z,45.30
2018-04-02T19:04:22.329Z,43.60
2018-04-02T19:06:50.058Z,43.70
2018-04-02T19:09:17.742Z,43.50
2018-04-02T19:11:45.502Z,43.00
2018-04-02T19:14:13.137Z,43.60
2018-04-02T19:16:40.846Z,43.00
2018-04-02T19:19:08.548Z,43.80
2018-04-02T19:21:36.297Z,44.60
2018-04-02T19:24:04.091Z,43.40
2018-04-02T19:26:31.762Z,44.20
2018-04-02T19:29:02.239Z,42.30
2018-04-02T19:31:30.919Z,44.10
2018-04-02T19:33:59.367Z,43.70
2018-04-02T19:36:27.175Z,43.70
2018-04-02T19:38:55.004Z,43.60
2018-04-02T19:41:22.665Z,43.70
2018-04-02T19:43:50.311Z,44.10
2018-04-02T19:46:18.179Z,44.50
2018-04-02T19:48:45.852Z,43.90
2018-04-02T19:51:13.576Z,43.90
2018-04-02T19:53:41.275Z,43.90
2018-04-02T19:56:09.457Z,44.00
2018-04-02T19:58:37.123Z,43.70
2018-04-02T20:01:06.073Z,43.00
2018-04-02T20:03:33.905Z,43.80
2018-04-02T20:06:02.406Z,43.50
2018-04-02T20:08:30.960Z,44.00
2018-04-02T20:11:00.973Z,43.90
2018-04-02T20:13:28.724Z,43.90
2018-04-02T20:15:56.411Z,44.30
2018-04-02T20:18:24.828Z,44.30
2018-04-02T20:20:52.626Z,44.90
2018-04-02T20:23:20.559Z,44.20
2018-04-02T20:25:48.317Z,44.10
2018-04-02T20:28:15.998Z,43.90
2018-04-02T20:30:45.366Z,43.60
2018-04-02T20:33:13.087Z,43.70
2018-04-02T20:35:40.879Z,43.90
2018-04-02T20:38:08.594Z,44.30
2018-04-02T20:40:36.301Z,44.30
2018-04-02T20:43:05.577Z,44.70
2018-04-02T20:45:33.741Z,44.60
2018-04-02T20:48:01.409Z,45.00
2018-04-02T20:50:29.167Z,45.40
2018-04-02T20:52:58.857Z,45.50
2018-04-02T20:55:29.020Z,46.90
2018-04-02T20:57:58.119Z,46.90
2018-04-02T21:00:26.556Z,47.10
2018-04-02T21:02:54.299Z,47.00
2018-04-02T21:05:22.093Z,47.20
2018-04-02T21:07:49.839Z,47.80
2018-04-02T21:10:17.509Z,48.40
2018-04-02T21:12:45.188Z,48.70
2018-04-02T21:15:12.893Z,49.20
2018-04-02T21:17:41.054Z,49.50
2018-04-02T21:20:09.528Z,50.70
2018-04-02T21:22:37.316Z,50.60
2018-04-02T21:25:06.143Z,51.00
2018-04-02T21:27:33.857Z,51.40
2018-04-02T21:30:02.236Z,52.80
2018-04-02T21:32:29.888Z,52.90
2018-04-02T21:34:57.544Z,52.30
2018-04-02T21:37:26.026Z,52.20
2018-04-02T21:39:54.475Z,52.70
2018-04-02T21:42:22.180Z,52.70
2018-04-02T21:44:50.592Z,53.30
2018-04-02T21:47:18.275Z,53.30
2018-04-02T21:49:45.985Z,53.50
2018-04-02T21:52:14.401Z,53.90
2018-04-02T21:54:42.117Z,53.90
2018-04-02T21:57:10.569Z,54.60
2018-04-02T21:59:39.915Z,54.60
2018-04-02T22:02:08.015Z,54.80
2018-04-02T22:04:35.707Z,55.20
2018-04-02T22:07:05.169Z,54.90
2018-04-02T22:09:32.859Z,54.90
2018-04-02T22:12:00.529Z,55.00
2018-04-02T22:14:28.157Z,55.20
2018-04-02T22:16:55.883Z,55.90
2018-04-02T22:19:24.305Z,56.10
2018-04-02T22:21:52.006Z,56.10
2018-04-02T22:26:53.662Z,56.60
2018-04-02T22:29:21.356Z,55.80
2018-04-02T22:31:49.815Z,56.10
2018-04-02T22:34:17.447Z,56.00
2018-04-02T22:36:45.296Z,56.20
2018-04-02T22:39:13.003Z,56.10
2018-04-02T22:41:40.615Z,56.00
2018-04-02T22:44:08.295Z,55.70
2018-04-02T22:46:36.015Z,55.90
2018-04-02T22:49:05.843Z,57.20
2018-04-02T22:51:33.599Z,57.20
2018-04-02T22:54:01.289Z,57.50
2018-04-02T22:56:29.104Z,57.70
2018-04-02T22:58:56.738Z,57.90
2018-04-02T23:01:24.394Z,58.10
2018-04-02T23:03:52.043Z,57.90
2018-04-02T23:06:21.007Z,57.30
2018-04-02T23:08:48.693Z,56.50
2018-04-02T23:11:16.357Z,57.50
2018-04-02T23:13:43.958Z,57.40
2018-04-02T23:16:11.576Z,58.20
2018-04-02T23:18:39.281Z,59.40
2018-04-02T23:21:06.896Z,59.20
2018-04-02T23:23:34.551Z,59.20
2018-04-02T23:26:03.072Z,60.00
2018-04-02T23:28:30.844Z,60.30
2018-04-02T23:30:59.280Z,61.00
2018-04-02T23:33:26.924Z,60.90
2018-04-02T23:35:54.604Z,60.20
2018-04-02T23:38:23.485Z,60.10
2018-04-02T23:40:51.248Z,60.70
2018-04-02T23:43:18.904Z,61.20
2018-04-02T23:45:46.548Z,61.50
2018-04-02T23:48:14.940Z,62.30
2018-04-02T23:50:42.645Z,62.40
2018-04-02T23:53:11.921Z,63.80
2018-04-02T23:55:39.651Z,65.20
2018-04-02T23:58:08.088Z,66.40
